Latest Weather Observations for Perth Airport

IDW60801

Issued at 4:43 pm WST Wednesday 24 April 2019 (issued every 10 minutes, with the page automatically refreshed every 10 minutes)

About weather observations | Map of weather stations | Latest weather observations for WA | Other Formats
Station Details ID: 009021 Name: PERTH AIRPORT Lat: -31.93 Lon: 115.98 Height: 15.4 m
Data from the previous 72 hours. | See also: Recent months at Perth Airport
Date/Time
WST
Temp
°C
App
Temp
°C
Dew
Point
°C
Rel
Hum
%
Delta-T
°C
Wind Press
QNH
hPa
Press
MSL
hPa
Rain since
9am
mm
Dir  Spd
km/h
Gust
km/h
Spd
kts
Gust
kts
24/04:30pm 27.3 22.2 5.9 25 11.1 ESE 22 32 12 17 1023.5 1023.5 0.0
24/04:00pm 27.9 23.1 4.4 22 11.9 E 19 28 10 15 1023.7 1023.7 0.0
24/03:30pm 28.0 22.9 4.3 22 12.0 ESE 20 30 11 16 1023.8 1023.8 0.0
24/03:00pm 28.2 23.3 5.3 23 11.8 ESE 20 30 11 16 1023.9 1023.9 0.0
24/02:30pm 27.8 22.7 5.8 24 11.5 E 22 30 12 16 1024.0 1024.0 0.0
24/02:00pm 27.9 21.9 5.4 24 11.6 ESE 26 35 14 19 1024.1 1024.1 0.0
24/01:30pm 27.6 23.5 6.1 25 11.2 E 17 26 9 14 1024.4 1024.4 0.0
24/01:00pm 26.9 22.5 6.7 27 10.6 ESE 19 28 10 15 1024.8 1024.8 0.0
24/12:30pm 26.7 22.4 6.9 28 10.4 E 19 28 10 15 1025.4 1025.4 0.0
24/12:00pm 25.9 22.0 7.0 30 9.9 ENE 17 26 9 14 1025.9 1025.9 0.0
24/11:30am 24.6 20.0 8.2 35 8.7 E 22 32 12 17 1026.3 1026.3 0.0
24/11:00am 23.7 18.8 8.4 37 8.1 E 24 32 13 17 1026.7 1026.7 0.0
24/10:30am 22.5 17.6 8.4 40 7.5 E 24 35 13 19 1027.0 1027.0 0.0
24/10:00am 21.3 15.9 8.0 42 6.9 ENE 26 35 14 19 1027.1 1027.1 0.0
24/09:30am 20.3 16.0 7.8 44 6.4 NE 20 26 11 14 1027.1 1027.1 0.0
24/09:00am 19.3 15.7 8.2 48 5.7 NE 17 24 9 13 1027.2 1027.2 0.0
24/08:30am 18.3 15.0 8.1 51 5.2 ENE 15 24 8 13 1027.1 1027.1 0.0
24/08:00am 17.5 15.1 8.5 55 4.6 E 11 19 6 10 1026.9 1026.9 0.0
24/07:30am 16.9 14.4 8.4 57 4.3 ESE 11 28 6 15 1026.6 1026.6 0.0
24/07:00am 16.1 13.3 8.6 61 3.8 E 13 20 7 11 1026.2 1026.2 0.0
24/06:30am 16.3 15.2 8.4 59 4.0 NNE 4 9 2 5 1026.0 1026.0 0.0
24/06:00am 16.1 14.7 8.8 62 3.7 S 6 9 3 5 1025.8 1025.8 0.0
24/05:30am 16.2 13.4 8.7 61 3.8 E 13 20 7 11 1025.5 1025.5 0.0
24/05:00am 16.8 15.3 9.0 60 4.0 ESE 7 11 4 6 1025.3 1025.3 0.0
24/04:30am 17.1 14.8 8.9 58 4.2 E 11 20 6 11 1025.0 1025.0 0.0
24/04:00am 16.9 15.0 9.1 60 4.0 E 9 15 5 8 1024.9 1024.9 0.0
24/03:30am 17.4 15.4 8.6 56 4.5 E 9 15 5 8 1024.9 1024.9 0.0
24/03:00am 17.5 15.3 8.0 53 4.8 NE 9 17 5 9 1024.8 1024.8 0.0
24/02:30am 17.2 14.1 7.4 52 4.9 ESE 13 19 7 10 1024.9 1024.9 0.0
24/02:00am 12.1 10.9 8.2 77 1.9 NNW 4 9 2 5 1025.2 1025.2 0.0
24/01:30am 11.7 9.7 8.7 82 1.5 NW 9 11 5 6 1025.3 1025.3 0.0
24/01:00am 12.1 9.9 9.3 83 1.4 NW 11 15 6 8 1025.2 1025.2 0.0
24/12:30am 11.0 9.9 8.5 84 1.2 NW 4 11 2 6 1025.2 1025.2 0.0
24/12:00am 11.4 11.2 9.0 85 1.2 CALM 0 0 0 0 1025.3 1025.3 0.0
 
Date/Time
WST
Temp
°C
App
Temp
°C
Dew
Point
°C
Rel
Hum
%
Delta-T
°C
Wind Press
QNH
hPa
Press
MSL
hPa
Rain since
9am
mm
Dir  Spd
km/h
Gust
km/h
Spd
kts
Gust
kts
23/11:30pm 11.8 10.4 9.0 83 1.4 SSE 6 9 3 5 1025.3 1025.3 0.0
23/11:00pm 13.0 10.8 9.4 79 1.8 S 11 15 6 8 1025.3 1025.3 0.0
23/10:30pm 15.7 12.9 10.1 69 2.9 SSW 15 17 8 9 1025.3 1025.3 0.0
23/10:00pm 15.7 13.3 10.1 69 2.9 SSW 13 15 7 8 1025.4 1025.4 0.0
23/09:30pm 15.9 13.8 9.7 66 3.2 SSW 11 13 6 7 1025.4 1025.4 0.0
23/09:00pm 15.9 13.7 9.3 65 3.4 S 11 15 6 8 1025.4 1025.4 0.0
23/08:30pm 18.3 14.2 8.8 54 4.9 S 20 26 11 14 1025.2 1025.2 0.0
23/08:00pm 19.1 15.1 8.2 49 5.6 SSW 19 24 10 13 1024.9 1024.9 0.0
23/07:30pm 20.1 15.9 7.3 43 6.5 SSW 19 24 10 13 1024.7 1024.7 0.0
23/07:00pm 20.6 16.7 7.0 41 6.9 SSW 17 20 9 11 1024.5 1024.5 0.0
23/06:30pm 20.2 16.6 6.9 42 6.7 SW 15 17 8 9 1024.2 1024.2 0.0
23/06:00pm 21.1 17.2 7.2 40 7.1 SW 17 20 9 11 1023.8 1023.8 0.0
23/05:30pm 22.2 18.3 9.5 44 6.8 SW 20 28 11 15 1023.5 1023.5 0.0
23/05:00pm 23.5 18.8 7.6 36 8.3 SW 22 30 12 16 1023.1 1023.1 0.0
23/04:30pm 24.5 20.0 7.0 32 9.1 SW 20 28 11 15 1022.8 1022.8 0.0
23/04:00pm 25.0 20.2 7.5 32 9.2 SW 22 28 12 15 1022.7 1022.7 0.0
23/03:30pm 25.4 20.7 7.9 32 9.3 SW 22 32 12 17 1022.7 1022.7 0.0
23/03:00pm 26.2 20.9 5.1 26 10.7 WSW 22 33 12 18 1022.6 1022.6 0.0
23/02:30pm 27.4 22.6 2.7 20 12.2 SSW 17 24 9 13 1022.5 1022.5 0.0
23/02:00pm 27.3 23.7 3.2 21 11.9 SW 11 24 6 13 1022.5 1022.5 0.0
23/01:30pm 26.9 23.8 3.5 22 11.6 ESE 9 17 5 9 1022.6 1022.6 0.0
23/01:00pm 27.0 23.8 3.0 21 11.8 S 9 13 5 7 1022.8 1022.8 0.0
23/12:30pm 26.3 23.6 5.6 26 10.6 WNW 9 13 5 7 1023.4 1023.4 0.0
23/12:00pm 26.0 23.8 6.0 27 10.3 SSW 7 13 4 7 1024.1 1024.1 0.0
23/11:30am 24.5 22.0 6.7 32 9.2 ENE 9 13 5 7 1024.4 1024.4 0.0
23/11:00am 24.2 21.6 5.9 30 9.3 ENE 9 13 5 7 1024.7 1024.7 0.0
23/10:30am 22.6 19.3 6.2 34 8.3 E 13 17 7 9 1025.1 1025.1 0.0
23/10:00am 21.5 17.2 5.3 34 8.0 ENE 17 20 9 11 1025.3 1025.3 0.0
23/09:30am 20.4 17.6 5.3 37 7.4 E 9 15 5 8 1025.3 1025.3 0.0
23/09:00am 19.0 16.3 5.7 41 6.5 NE 9 11 5 6 1025.2 1025.2 0.0
23/08:30am 17.2 13.1 6.4 49 5.3 NE 17 20 9 11 1025.0 1025.0 0.0
23/08:00am 16.2 13.7 6.6 53 4.7 NE 9 13 5 7 1024.8 1024.8 0.0
23/07:30am 14.3 13.1 6.4 59 3.8 ENE 2 9 1 5 1024.6 1024.6 0.0
23/07:29am 14.1 12.9 6.6 60 3.6 ENE 2 9 1 5 1024.5 1024.5 0.0
23/07:00am 9.1 8.0 6.7 85 1.1 ENE 2 7 1 4 1024.2 1024.2 0.0
23/06:30am 8.6 6.1 6.6 87 0.9 NE 9 11 5 6 1024.1 1024.1 0.0
23/06:00am 8.2 6.3 6.7 90 0.7 N 6 7 3 4 1024.1 1024.1 0.0
23/05:30am 8.5 6.4 6.8 89 0.8 NNW 7 13 4 7 1023.8 1023.8 0.0
23/05:00am 8.3 6.2 6.8 90 0.7 NW 7 9 4 5 1024.0 1024.0 0.0
23/04:30am 7.6 4.6 6.0 90 0.7 N 11 15 6 8 1023.8 1023.8 0.0
23/04:00am 8.1 7.3 6.6 90 0.7 CALM 0 0 0 0 1024.0 1024.0 0.0
23/03:30am 9.0 6.5 6.4 84 1.2 ESE 9 13 5 7 1023.8 1023.8 0.0
23/03:00am 10.3 6.4 7.1 80 1.5 SSW 17 19 9 10 1023.9 1023.9 0.0
23/02:30am 8.3 7.5 6.6 89 0.8 CALM 0 0 0 0 1023.9 1023.9 0.0
23/02:00am 8.7 6.2 6.5 86 1.0 SSW 9 13 5 7 1023.8 1023.8 0.0
23/01:30am 8.8 5.2 6.6 86 1.0 SW 15 17 8 9 1023.9 1023.9 0.0
23/01:00am 8.7 5.0 6.1 84 1.2 SSW 15 17 8 9 1023.6 1023.6 0.0
23/12:30am 10.3 7.5 6.9 79 1.6 SW 11 15 6 8 1023.6 1023.6 0.0
23/12:00am 10.0 8.1 6.8 80 1.5 WNW 6 9 3 5 1023.6 1023.6 0.0
 
Date/Time
WST
Temp
°C
App
Temp
°C
Dew
Point
°C
Rel
Hum
%
Delta-T
°C
Wind Press
QNH
hPa
Press
MSL
hPa
Rain since
9am
mm
Dir  Spd
km/h
Gust
km/h
Spd
kts
Gust
kts
22/11:30pm 10.0 8.1 6.8 80 1.5 SSW 6 7 3 4 1023.8 1023.8 0.0
22/11:00pm 10.7 8.7 7.1 78 1.7 SSW 7 9 4 5 1024.0 1024.0 0.0
22/10:30pm 11.2 8.4 7.0 75 2.0 SSW 11 13 6 7 1024.1 1024.1 0.0
22/10:00pm 11.6 8.8 7.0 73 2.2 SSW 11 11 6 6 1023.9 1023.9 0.0
22/09:30pm 13.1 10.3 7.1 67 2.9 SSW 11 13 6 7 1023.9 1023.9 0.0
22/09:00pm 15.6 12.8 7.0 56 4.2 S 11 13 6 7 1023.7 1023.7 0.0
22/08:30pm 17.1 13.8 6.5 49 5.2 SSW 13 17 7 9 1023.6 1023.6 0.0
22/08:00pm 18.0 14.2 5.6 44 6.0 SSW 15 19 8 10 1023.3 1023.3 0.0
22/07:30pm 18.5 14.5 5.0 41 6.5 SSW 15 20 8 11 1023.0 1023.0 0.0
22/07:00pm 19.5 14.9 3.6 35 7.5 SSW 17 20 9 11 1022.7 1022.7 0.0
22/06:30pm 19.9 15.3 3.6 34 7.7 SSW 17 19 9 10 1022.2 1022.2 0.0
22/06:00pm 20.7 15.9 2.7 30 8.4 SSW 17 24 9 13 1022.1 1022.1 0.0
22/05:30pm 21.6 16.1 2.0 27 9.1 SW 20 30 11 16 1021.9 1021.9 0.0
22/05:00pm 22.8 17.3 2.1 25 9.7 SW 20 28 11 15 1021.8 1021.8 0.0
22/04:30pm 23.3 18.5 2.4 25 9.9 SW 17 24 9 13 1021.6 1021.6 0.0
22/04:00pm 23.4 17.5 1.5 23 10.2 SW 22 30 12 16 1021.7 1021.7 0.0
22/03:30pm 24.3 18.2 2.6 24 10.4 WSW 24 33 13 18 1021.7 1021.7 0.0
22/03:00pm 25.3 22.6 3.5 24 10.7 W 7 13 4 7 1021.5 1021.5 0.0
22/02:30pm 25.2 21.4 1.9 22 11.1 S 11 17 6 9 1021.6 1021.6 0.0
22/02:00pm 25.2 22.1 1.1 20 11.3 SW 7 15 4 8 1021.6 1021.6 0.0
22/01:30pm 24.6 21.7 1.7 22 10.8 WSW 6 9 3 5 1022.0 1022.0 0.0
22/01:00pm 25.1 22.2 2.4 23 10.9 WNW 7 13 4 7 1022.1 1022.1 0.0
22/12:30pm 23.7 20.7 1.0 22 10.5 S 6 15 3 8 1022.6 1022.6 0.0
22/12:00pm 23.9 20.5 1.8 23 10.4 NNE 9 15 5 8 1023.0 1023.0 0.0
22/11:30am 23.1 20.1 2.0 25 9.9 N 7 13 4 7 1023.6 1023.6 0.0
22/11:00am 22.3 17.9 2.6 27 9.3 NNE 15 26 8 14 1023.8 1023.8 0.0
22/10:30am 21.6 17.1 2.3 28 9.0 NNE 15 22 8 12 1024.2 1024.2 0.0
22/10:00am 20.8 16.5 3.2 31 8.3 NNE 15 22 8 12 1024.4 1024.4 0.0
22/09:30am 19.3 15.9 3.8 36 7.3 NNE 11 15 6 8 1024.3 1024.3 0.0
22/09:00am 18.6 15.0 3.0 35 7.2 NE 11 15 6 8 1024.5 1024.5 0.0
22/08:30am 16.4 11.9 2.0 38 6.4 ENE 15 19 8 10 1024.4 1024.4 0.0
22/08:00am 14.7 11.0 2.2 43 5.5 ENE 11 15 6 8 1024.4 1024.4 0.0
22/07:30am 12.7 9.4 2.3 49 4.5 NE 9 13 5 7 1024.1 1024.1 0.0
22/07:00am 10.8 7.1 2.3 55 3.6 NE 11 19 6 10 1023.9 1023.9 0.0
22/06:30am 11.0 7.6 2.0 54 3.8 NNE 9 13 5 7 1023.6 1023.6 0.0
22/06:00am 11.3 6.7 1.8 52 4.0 NE 15 22 8 12 1023.4 1023.4 0.0
22/05:30am 11.5 7.2 1.2 49 4.3 NE 13 17 7 9 1023.5 1023.5 0.0
22/05:00am 11.8 7.1 1.0 47 4.5 NE 15 17 8 9 1023.4 1023.4 0.0
22/04:30am 12.1 6.6 0.5 45 4.8 ENE 19 20 10 11 1023.4 1023.4 0.0
22/04:00am 12.0 6.9 0.7 46 4.7 ENE 17 19 9 10 1023.6 1023.6 0.0
22/03:30am 11.8 7.2 1.3 48 4.4 NE 15 17 8 9 1023.7 1023.7 0.0
22/03:00am 10.7 7.0 2.5 57 3.5 NNE 11 13 6 7 1023.6 1023.6 0.0
22/02:30am 11.2 7.1 2.3 54 3.8 NE 13 15 7 8 1023.4 1023.4 0.0
22/02:00am 10.6 6.6 2.9 59 3.3 NE 13 13 7 7 1023.6 1023.6 0.0
22/01:30am 7.4 5.4 4.6 82 1.2 N 4 7 2 4 1023.7 1023.7 0.0
22/01:00am 7.4 6.4 5.6 88 0.8 CALM 0 0 0 0 1023.7 1023.7 0.0
22/12:30am 7.2 4.9 5.6 89 0.7 NE 7 7 4 4 1023.7 1023.7 0.0
22/12:00am 7.7 5.5 6.2 90 0.7 NNW 7 9 4 5 1023.7 1023.7 0.0
 
Date/Time
WST
Temp
°C
App
Temp
°C
Dew
Point
°C
Rel
Hum
%
Delta-T
°C
Wind Press
QNH
hPa
Press
MSL
hPa
Rain since
9am
mm
Dir  Spd
km/h
Gust
km/h
Spd
kts
Gust
kts
21/11:30pm 8.6 6.6 6.4 86 1.0 NW 6 7 3 4 1023.9 1023.9 0.0
21/11:00pm 8.7 6.8 6.8 88 0.9 NNE 6 7 3 4 1024.0 1024.0 0.0
21/10:30pm 9.4 7.2 7.9 90 0.7 N 9 17 5 9 1024.2 1024.2 0.0
21/10:00pm 9.8 8.3 8.4 91 0.7 SSW 6 7 3 4 1024.3 1024.3 0.0
21/09:30pm 10.8 9.2 8.8 87 1.0 S 7 7 4 4 1024.5 1024.5 0.0
21/09:00pm 11.9 10.6 9.3 84 1.3 SSE 6 9 3 5 1024.4 1024.4 0.0
21/08:30pm 13.5 11.3 9.4 76 2.1 S 11 15 6 8 1024.3 1024.3 0.0
21/08:00pm 15.4 12.1 9.4 67 3.1 SSW 17 19 9 10 1024.6 1024.6 0.0
21/07:30pm 16.0 12.6 9.2 64 3.5 SSW 17 19 9 10 1024.7 1024.7 0.0
21/07:00pm 16.7 12.6 8.7 59 4.1 S 20 26 11 14 1024.6 1024.6 0.0
21/06:30pm 17.5 13.5 8.3 54 4.7 SSW 19 20 10 11 1024.5 1024.5 0.0
21/06:00pm 17.8 15.0 8.7 55 4.7 SW 13 19 7 10 1024.3 1024.3 0.0
21/05:30pm 18.9 14.6 7.7 48 5.7 SSW 20 26 11 14 1024.2 1024.2 0.0
21/05:00pm 20.2 15.9 7.2 43 6.6 SW 19 22 10 12 1024.1 1024.1 0.0

Other formats

Comma delimited format used in spreadsheet applications
http://www.bom.gov.au/fwo/IDW60801/IDW60801.94610.axf

JavaScript Object Notation format (JSON) in row-major order
http://www.bom.gov.au/fwo/IDW60801/IDW60801.94610.json

Data quality

Most of these data are generated automatically and are frequently updated. Quality checks on data are not normally performed. It is possible for incorrect values to appear. Refer to information at About Latest Weather Observations and please check the disclaimer before using these data.